Time;durP1;ratioP1;P1;durP2;ratioP2;P2;SDS_P1;SDS_P2;PMS_P1;PMS_P2;Temp;Humidity;BMP_temperature;BMP_pressure;BME280_temperature;BME280_humidity;BME280_pressure;Samples;Min_cycle;Max_cycle;Signal;HPM_P1;HPM_P2
2023/01/23 00:02:15;;;;;;;8.40;5.60;;;;;;;7.80;73.57;95209.28;5016035;28;20028;-79
2023/01/23 00:04:41;;;;;;;9.15;5.88;;;;;;;7.98;73.15;95238.28;5016193;28;20075;-79
2023/01/23 00:07:06;;;;;;;8.27;4.88;;;;;;;7.71;72.98;95231.41;5016073;28;20076;-79
2023/01/23 00:09:32;;;;;;;10.30;5.40;;;;;;;7.68;72.23;95241.94;5032598;28;20048;-79
2023/01/23 00:11:57;;;;;;;8.40;4.43;;;;;;;7.67;71.41;95239.47;5033049;28;20446;-79
2023/01/23 00:14:23;;;;;;;6.60;4.45;;;;;;;7.65;71.76;95241.31;5019673;28;20037;-79
2023/01/23 00:16:48;;;;;;;8.88;4.95;;;;;;;7.68;72.15;95241.13;5003088;28;20056;-78
2023/01/23 00:19:14;;;;;;;6.10;4.65;;;;;;;7.83;72.61;95250.50;5036031;28;20064;-79
2023/01/23 00:21:39;;;;;;;6.70;5.00;;;;;;;7.78;72.70;95227.50;5019461;28;20021;-79
2023/01/23 00:24:05;;;;;;;6.80;4.90;;;;;;;7.78;73.11;95224.09;5002848;28;20060;-79
2023/01/23 00:26:34;;;;;;;6.43;4.63;;;;;;;7.92;73.38;95244.69;5053781;28;20031;-79
2023/01/23 00:29:00;;;;;;;7.20;5.03;;;;;;;7.86;71.88;95219.25;5020161;28;20048;-79
2023/01/23 00:31:27;;;;;;;7.88;5.00;;;;;;;7.95;71.92;95233.31;5002686;28;20424;-79
2023/01/23 00:33:55;;;;;;;8.40;5.40;;;;;;;7.98;71.23;95233.13;5019498;28;20112;-79
2023/01/23 00:36:20;;;;;;;6.88;5.10;;;;;;;7.95;72.25;95241.09;5035575;28;20032;-79
2023/01/23 00:38:46;;;;;;;6.50;4.90;;;;;;;7.99;71.41;95245.13;5019169;28;20545;-79
2023/01/23 00:41:11;;;;;;;7.78;4.65;;;;;;;7.91;71.49;95235.28;5053368;28;20392;-78
2023/01/23 00:43:37;;;;;;;6.53;4.68;;;;;;;8.00;71.12;95250.19;5035477;28;20063;-79
2023/01/23 00:46:02;;;;;;;7.15;4.85;;;;;;;7.85;71.30;95235.66;5035459;28;20029;-79
2023/01/23 00:48:27;;;;;;;6.07;4.60;;;;;;;7.82;71.84;95253.97;5029164;28;20426;-79
2023/01/23 00:50:53;;;;;;;8.50;4.60;;;;;;;7.87;71.40;95238.16;5055319;28;20033;-79
2023/01/23 00:53:19;;;;;;;7.25;4.65;;;;;;;7.96;70.72;95250.50;5038658;28;20029;-79
2023/01/23 00:55:44;;;;;;;8.10;4.78;;;;;;;7.90;70.92;95253.50;5073110;28;20041;-79
2023/01/23 00:58:09;;;;;;;6.90;4.45;;;;;;;7.77;71.61;95241.38;5055003;28;20033;-79
2023/01/23 01:00:36;;;;;;;7.75;3.90;;;;;;;7.73;71.36;95259.75;5022017;28;20028;-79
2023/01/23 01:03:01;;;;;;;5.10;3.75;;;;;;;7.56;71.52;95243.56;5038525;28;20025;-79
2023/01/23 01:05:27;;;;;;;5.03;3.60;;;;;;;7.67;72.14;95253.22;5038448;28;20430;-78
2023/01/23 01:07:52;;;;;;;6.68;4.70;;;;;;;7.76;72.48;95267.31;5021750;28;20082;-79
2023/01/23 01:10:18;;;;;;;9.38;4.40;;;;;;;7.72;72.93;95277.03;5054843;28;20086;-78
2023/01/23 01:12:43;;;;;;;5.95;4.50;;;;;;;7.60;73.37;95250.22;5054638;28;20401;-79
2023/01/23 01:15:09;;;;;;;7.88;4.43;;;;;;;7.65;73.44;95254.25;5038264;28;20035;-79
2023/01/23 01:17:35;;;;;;;7.35;4.78;;;;;;;7.76;73.18;95262.13;5038190;28;20466;-79
2023/01/23 01:20:01;;;;;;;8.27;4.75;;;;;;;7.57;73.50;95260.72;5038195;28;20035;-79
2023/01/23 01:22:26;;;;;;;6.45;4.20;;;;;;;7.75;72.97;95258.72;5054533;28;20028;-79
2023/01/23 01:24:52;;;;;;;6.60;4.60;;;;;;;7.79;73.83;95272.28;5036784;28;20059;-79
2023/01/23 01:27:17;;;;;;;8.00;4.22;;;;;;;7.70;73.39;95265.94;5054510;28;20094;-79
2023/01/23 01:29:42;;;;;;;5.90;4.07;;;;;;;7.79;73.42;95280.03;5021639;28;20044;-79
2023/01/23 01:32:08;;;;;;;7.43;4.07;;;;;;;7.80;73.04;95267.03;5072261;28;20029;-79
2023/01/23 01:34:33;;;;;;;5.55;4.10;;;;;;;7.79;73.69;95280.03;5054367;28;20514;-79
2023/01/23 01:36:59;;;;;;;6.15;4.55;;;;;;;7.76;73.63;95286.25;5037910;28;20036;-79
2023/01/23 01:39:24;;;;;;;5.95;4.00;;;;;;;7.89;72.87;95293.22;5054209;28;20040;-79
2023/01/23 01:41:50;;;;;;;5.22;3.90;;;;;;;7.76;73.22;95286.25;5037661;28;20021;-78
2023/01/23 01:44:20;;;;;;;6.53;3.40;;;;;;;7.77;72.95;95281.91;5054415;28;20035;-79
2023/01/23 01:46:45;;;;;;;6.63;3.42;;;;;;;7.80;72.45;95274.78;5037748;28;20482;-79
2023/01/23 01:49:23;;;;;;;4.38;3.28;;;;;;;8.00;72.30;95285.59;5054046;28;20062;-79
2023/01/23 01:51:54;;;;;;;6.18;3.22;;;;;;;8.07;72.71;95290.25;5037338;28;20036;-79
2023/01/23 01:54:33;;;;;;;5.95;3.75;;;;;;;8.05;72.67;95283.53;5053830;28;20127;-79
2023/01/23 01:57:17;;;;;;;4.72;3.38;;;;;;;8.12;72.19;95297.72;5055352;28;20092;-79
2023/01/23 01:59:48;;;;;;;6.43;3.78;;;;;;;8.13;72.11;95289.03;5054105;28;20040;-79
2023/01/23 02:02:18;;;;;;;5.95;3.65;;;;;;;7.93;72.59;95276.56;5072270;28;20025;-79
2023/01/23 02:04:46;;;;;;;5.75;3.78;;;;;;;7.84;73.05;95271.06;5037420;28;20052;-79
2023/01/23 02:07:22;;;;;;;7.15;3.30;;;;;;;7.77;72.94;95292.25;5037361;28;20105;-79
2023/01/23 02:09:48;;;;;;;5.55;3.70;;;;;;;7.86;73.25;95291.66;5020980;28;20206;-79
2023/01/23 02:12:13;;;;;;;5.57;3.67;;;;;;;7.94;73.06;95294.59;5037098;28;20522;-79
2023/01/23 02:14:39;;;;;;;7.65;4.22;;;;;;;7.99;72.87;95287.34;5072052;28;20066;-79
2023/01/23 02:17:04;;;;;;;4.75;3.38;;;;;;;7.95;72.45;95288.47;5036960;28;20082;-79
2023/01/23 02:20:01;;;;;;;4.75;3.30;;;;;;;8.00;72.32;95275.25;5053727;28;20479;-79
2023/01/23 02:22:48;;;;;;;4.80;3.33;;;;;;;7.98;73.10;95282.28;5054839;28;20028;-79
2023/01/23 02:25:28;;;;;;;6.40;3.45;;;;;;;8.07;73.04;95292.00;5033684;28;20052;-79
2023/01/23 02:27:53;;;;;;;8.93;3.58;;;;;;;7.99;73.09;95283.94;5017011;28;20380;-79
2023/01/23 02:30:19;;;;;;;6.72;4.20;;;;;;;8.03;72.75;95272.47;5016852;28;20032;-79
2023/01/23 02:32:45;;;;;;;5.45;3.58;;;;;;;8.07;72.83;95279.06;5033524;28;20037;-79
2023/01/23 02:35:20;;;;;;;6.53;4.07;;;;;;;7.97;72.75;95265.94;5032719;28;20029;-78
2023/01/23 02:37:46;;;;;;;6.53;3.85;;;;;;;8.13;72.70;95290.78;5033205;28;20056;-79
2023/01/23 02:40:12;;;;;;;5.63;4.05;;;;;;;8.07;72.82;95276.50;5033261;28;20021;-79
2023/01/23 02:42:39;;;;;;;5.53;4.13;;;;;;;8.18;72.34;95283.56;5016718;28;20098;-79
2023/01/23 02:45:05;;;;;;;8.93;4.57;;;;;;;8.24;72.00;95288.31;5033397;28;20025;-79
2023/01/23 02:47:32;;;;;;;6.13;4.22;;;;;;;8.13;72.29;95272.66;5016518;28;20029;-79
2023/01/23 02:49:58;;;;;;;8.00;4.35;;;;;;;7.99;72.98;95269.22;5017150;28;20035;-79
2023/01/23 02:52:23;;;;;;;6.72;4.68;;;;;;;7.97;73.00;95276.28;5033010;28;20029;-78
2023/01/23 02:54:49;;;;;;;6.50;4.32;;;;;;;8.19;71.87;95280.88;5016812;28;20550;-79
2023/01/23 02:57:14;;;;;;;9.18;5.13;;;;;;;7.98;71.90;95248.66;5016607;28;20499;-79
2023/01/23 03:02:24;;;;;;;7.43;4.57;;;;;;;7.98;72.16;95254.66;5035628;28;20040;-79
2023/01/23 03:04:49;;;;;;;8.52;5.85;;;;;;;8.04;72.15;95272.34;5000252;28;20021;-78
2023/01/23 03:07:15;;;;;;;6.85;4.50;;;;;;;8.10;72.11;95293.56;5016478;28;20099;-79
2023/01/23 03:09:41;;;;;;;6.75;4.40;;;;;;;7.99;72.53;95286.50;5051207;28;20494;-79
2023/01/23 03:12:07;;;;;;;3.97;3.10;;;;;;;7.93;71.88;95279.97;5016119;28;20029;-79
2023/01/23 03:14:33;;;;;;;5.25;2.92;;;;;;;7.72;72.10;95265.88;5033248;28;20057;-79
2023/01/23 03:16:59;;;;;;;5.05;3.00;;;;;;;7.77;71.91;95287.91;5032947;28;20506;-79
2023/01/23 03:19:25;;;;;;;4.05;2.83;;;;;;;7.70;72.61;95291.00;5016344;28;20043;-79
2023/01/23 03:21:51;;;;;;;4.78;3.20;;;;;;;7.63;72.54;95295.69;5032822;28;20182;-79
2023/01/23 03:24:17;;;;;;;4.00;2.60;;;;;;;7.49;72.87;95288.81;5007849;28;20566;-79
2023/01/23 03:26:43;;;;;;;5.50;2.58;;;;;;;7.60;72.53;95301.94;5051921;28;20081;-79
2023/01/23 03:32:07;;;;;;;4.20;2.95;;;;;;;7.35;73.54;95283.69;5040552;28;20517;-78
2023/01/23 03:34:33;;;;;;;4.50;2.95;;;;;;;7.26;73.74;95266.19;5035251;28;20067;-79
2023/01/23 03:37:00;;;;;;;4.47;3.10;;;;;;;7.40;73.46;95294.56;5035239;28;20025;-78
2023/01/23 03:42:09;;;;;;;4.55;3.13;;;;;;;7.14;74.42;95278.13;5069817;28;20094;-79
2023/01/23 03:44:35;;;;;;;4.95;2.85;;;;;;;7.05;75.17;95274.34;5069946;28;20123;-79
2023/01/23 03:47:00;;;;;;;5.32;3.67;;;;;;;7.11;75.28;95299.81;5036079;28;20028;-79
2023/01/23 03:49:26;;;;;;;4.70;3.00;;;;;;;7.12;74.91;95285.13;5036482;28;20179;-79
2023/01/23 03:51:51;;;;;;;4.68;3.20;;;;;;;7.32;74.16;95281.31;5035149;28;20461;-79
2023/01/23 03:54:16;;;;;;;5.45;3.30;;;;;;;7.45;73.62;95292.53;5038359;28;20028;-79
2023/01/23 03:56:42;;;;;;;6.15;3.42;;;;;;;7.39;74.32;95287.75;5055029;28;20032;-79
2023/01/23 03:59:08;;;;;;;3.85;2.80;;;;;;;7.52;73.74;95296.41;5038372;28;20581;-79
2023/01/23 04:01:34;;;;;;;5.38;3.00;;;;;;;7.61;73.36;95298.41;5055064;28;20509;-79
2023/01/23 04:03:59;;;;;;;9.10;6.03;;;;;;;7.59;73.24;95299.44;5038264;28;20077;-79
2023/01/23 04:06:25;;;;;;;4.68;3.13;;;;;;;7.47;73.93;95306.19;5054785;28;20042;-78
2023/01/23 04:08:50;;;;;;;4.85;3.20;;;;;;;7.38;74.21;95301.59;5038189;28;20186;-79
2023/01/23 04:11:16;;;;;;;5.10;3.55;;;;;;;7.36;73.78;95304.28;5021427;28;20483;-79
2023/01/23 04:13:41;;;;;;;4.05;2.90;;;;;;;7.15;74.32;95303.03;5021638;28;20037;-79
2023/01/23 04:16:07;;;;;;;5.13;3.13;;;;;;;7.02;74.40;95297.78;5038073;28;20035;-79
2023/01/23 04:18:32;;;;;;;3.83;2.80;;;;;;;7.31;74.36;95326.19;5037866;28;20424;-79
2023/01/23 04:20:58;;;;;;;3.90;2.90;;;;;;;7.20;74.28;95318.25;5038094;28;20020;-79
2023/01/23 04:25:53;;;;;;;4.13;2.90;;;;;;;7.06;73.77;95296.66;5068155;28;20386;-78
2023/01/23 04:28:22;;;;;;;4.38;2.60;;;;;;;7.13;73.54;95313.47;5068079;28;20028;-78
2023/01/23 04:30:49;;;;;;;4.25;2.85;;;;;;;7.13;72.68;95307.44;5068641;28;20029;-79
2023/01/23 04:33:14;;;;;;;3.70;2.63;;;;;;;7.09;73.11;95317.16;5050072;28;20024;-78
2023/01/23 04:35:40;;;;;;;3.60;2.25;;;;;;;7.24;73.24;95336.03;5067048;28;20040;-79
2023/01/23 04:38:05;;;;;;;3.40;2.70;;;;;;;7.37;72.59;95328.38;5066685;28;20548;-78
2023/01/23 04:40:31;;;;;;;4.28;2.88;;;;;;;7.26;72.54;95333.38;5050321;28;20502;-78
2023/01/23 04:42:56;;;;;;;3.33;2.47;;;;;;;7.23;72.36;95312.91;5050313;28;20390;-78
2023/01/23 04:45:22;;;;;;;4.40;2.75;;;;;;;7.52;72.02;95334.34;5066673;28;20044;-79
2023/01/23 04:47:47;;;;;;;5.60;4.05;;;;;;;7.38;72.19;95314.50;5066489;28;20499;-79
2023/01/23 04:50:13;;;;;;;4.40;3.13;;;;;;;7.48;72.41;95333.72;5049841;28;20510;-79
2023/01/23 04:52:38;;;;;;;5.93;3.40;;;;;;;7.64;71.91;95325.00;5033506;28;20093;-79
2023/01/23 04:55:04;;;;;;;5.00;3.35;;;;;;;7.66;71.32;95308.47;5049624;28;20025;-78
2023/01/23 04:57:30;;;;;;;4.57;3.15;;;;;;;7.70;72.15;95334.94;5066334;28;20032;-78
2023/01/23 04:59:55;;;;;;;4.18;3.10;;;;;;;7.57;72.14;95303.84;5066376;28;20097;-79
2023/01/23 05:02:21;;;;;;;5.55;3.40;;;;;;;7.44;72.23;95314.16;5049651;28;20048;-79
2023/01/23 05:04:46;;;;;;;5.75;3.65;;;;;;;7.58;72.16;95329.63;5066272;28;20505;-78
2023/01/23 05:07:12;;;;;;;6.88;3.72;;;;;;;7.49;72.50;95330.19;5032898;28;20438;-79
2023/01/23 05:09:38;;;;;;;5.03;2.95;;;;;;;7.44;72.31;95313.31;5049730;28;20467;-78
2023/01/23 05:12:04;;;;;;;6.20;3.58;;;;;;;7.65;71.71;95339.56;5049560;28;20068;-78
2023/01/23 05:14:30;;;;;;;4.68;3.00;;;;;;;7.42;72.17;95343.59;5049339;28;20029;-78
2023/01/23 05:16:55;;;;;;;5.25;3.00;;;;;;;7.39;72.03;95340.28;5049468;28;20025;-79
2023/01/23 05:19:21;;;;;;;4.22;2.90;;;;;;;7.57;71.70;95348.63;5049397;28;20402;-79
2023/01/23 05:21:46;;;;;;;6.35;3.25;;;;;;;7.45;72.48;95336.47;5065943;28;20410;-78
2023/01/23 05:24:12;;;;;;;5.40;3.58;;;;;;;7.63;71.87;95349.19;5048934;28;20055;-79
2023/01/23 05:26:37;;;;;;;5.95;3.33;;;;;;;7.64;71.43;95358.63;5049308;28;20020;-79
2023/01/23 05:29:02;;;;;;;4.10;2.70;;;;;;;7.56;70.81;95362.50;5032490;28;20048;-78
2023/01/23 05:31:28;;;;;;;3.58;2.65;;;;;;;7.43;71.11;95347.84;5032571;28;20040;-79
2023/01/23 05:33:53;;;;;;;3.17;2.05;;;;;;;7.40;71.65;95356.63;5032431;28;20418;-79
2023/01/23 05:36:19;;;;;;;4.00;2.30;;;;;;;7.31;71.46;95358.00;5024503;28;20021;-79
2023/01/23 05:38:44;;;;;;;3.28;1.90;;;;;;;7.25;71.97;95365.31;5035542;28;20037;-79
2023/01/23 05:41:10;;;;;;;3.42;2.30;;;;;;;7.44;71.20;95363.28;5052363;28;20086;-79
2023/01/23 05:43:35;;;;;;;3.05;1.73;;;;;;;7.27;71.19;95366.03;5035513;28;20029;-79
2023/01/23 05:46:01;;;;;;;2.70;1.77;;;;;;;7.17;71.34;95376.13;5035703;28;20041;-79
2023/01/23 05:48:26;;;;;;;2.83;1.70;;;;;;;7.23;71.74;95364.56;5015659;28;20490;-79
2023/01/23 05:50:52;;;;;;;2.75;1.83;;;;;;;7.32;71.16;95375.16;5015819;28;20423;-78
2023/01/23 05:53:17;;;;;;;4.28;2.13;;;;;;;6.99;72.12;95370.28;5015563;28;20430;-79
2023/01/23 05:55:43;;;;;;;3.45;2.10;;;;;;;6.92;72.11;95361.25;5032106;28;20045;-79
2023/01/23 05:58:08;;;;;;;2.75;2.17;;;;;;;7.06;72.08;95387.09;5033265;28;20458;-79
2023/01/23 06:00:34;;;;;;;3.30;1.92;;;;;;;7.18;71.55;95388.09;5032187;28;20470;-79
2023/01/23 06:03:00;;;;;;;4.30;2.22;;;;;;;7.20;71.48;95380.28;5048460;28;20096;-79
2023/01/23 06:05:25;;;;;;;3.65;2.08;;;;;;;7.28;70.90;95394.38;5023364;28;20036;-79
2023/01/23 06:07:51;;;;;;;2.50;1.65;;;;;;;7.23;71.09;95383.50;5007861;28;20029;-78
2023/01/23 06:10:16;;;;;;;3.50;2.00;;;;;;;7.19;71.02;95394.09;5055940;28;20117;-79
2023/01/23 06:12:42;;;;;;;3.38;2.10;;;;;;;7.12;71.12;95407.38;5036713;28;20030;-79
2023/01/23 06:15:08;;;;;;;4.10;1.67;;;;;;;7.07;71.49;95381.00;5009605;28;20064;-79
2023/01/23 06:17:33;;;;;;;2.70;1.70;;;;;;;7.14;71.10;95386.63;5041536;28;20120;-79
2023/01/23 06:19:59;;;;;;;3.50;2.38;;;;;;;7.25;71.09;95407.50;5024462;28;20125;-78
2023/01/23 06:22:24;;;;;;;2.60;1.80;;;;;;;7.11;71.00;95395.41;5027338;28;20033;-80
2023/01/23 06:24:51;;;;;;;3.65;2.58;;;;;;;7.11;71.10;95398.00;5043851;28;20053;-80
2023/01/23 06:27:17;;;;;;;3.33;2.10;;;;;;;7.38;70.99;95423.06;5048935;28;20063;-80
2023/01/23 06:29:42;;;;;;;3.67;2.35;;;;;;;7.37;70.75;95408.50;5048576;28;20061;-79
2023/01/23 06:32:08;;;;;;;3.83;2.30;;;;;;;7.39;70.65;95410.06;5026020;28;20503;-79
2023/01/23 06:34:35;;;;;;;5.57;2.95;;;;;;;7.41;70.58;95440.16;5025962;28;20063;-78
2023/01/23 06:37:01;;;;;;;7.25;4.13;;;;;;;7.51;70.49;95444.69;5043393;28;20044;-79
2023/01/23 06:39:26;;;;;;;5.97;3.75;;;;;;;7.37;71.43;95435.19;5042070;28;20033;-73
2023/01/23 06:41:52;;;;;;;5.55;3.25;;;;;;;7.30;71.62;95449.41;5026806;28;20025;-78
2023/01/23 06:44:17;;;;;;;5.43;3.38;;;;;;;7.23;71.93;95431.78;5044039;28;20029;-78
2023/01/23 06:46:42;;;;;;;5.53;2.88;;;;;;;6.92;72.61;95423.25;5025724;28;20080;-77
2023/01/23 06:49:08;;;;;;;6.47;3.92;;;;;;;6.94;73.31;95442.06;5041383;28;20391;-77
2023/01/23 06:51:34;;;;;;;8.07;3.70;;;;;;;7.01;72.88;95443.38;5010293;28;20052;-77
2023/01/23 06:53:59;;;;;;;5.88;3.63;;;;;;;6.94;73.62;95453.25;5039701;28;20040;-76
2023/01/23 06:56:25;;;;;;;6.07;4.03;;;;;;;6.90;73.53;95435.41;5034218;28;20025;-77
2023/01/23 06:58:50;;;;;;;6.60;3.55;;;;;;;7.03;73.27;95453.63;5029942;28;20427;-77
2023/01/23 07:01:16;;;;;;;5.90;3.42;;;;;;;7.04;73.64;95458.69;5033184;28;20044;-75
2023/01/23 07:03:45;;;;;;;6.32;3.80;;;;;;;7.04;72.98;95453.50;5013699;28;20071;-77
2023/01/23 07:06:11;;;;;;;6.97;4.32;;;;;;;7.22;73.09;95466.28;5042089;28;20036;-76
2023/01/23 07:08:37;;;;;;;11.00;4.75;;;;;;;7.20;73.13;95462.97;5029399;28;20029;-76
2023/01/23 07:11:02;;;;;;;33.53;12.80;;;;;;;7.16;73.20;95478.66;5013495;28;20518;-76
2023/01/23 07:13:28;;;;;;;34.55;13.27;;;;;;;7.22;72.65;95481.81;5043762;28;20025;-76
2023/01/23 07:15:53;;;;;;;15.50;8.73;;;;;;;7.24;72.96;95485.09;5045126;28;20493;-76
2023/01/23 07:18:18;;;;;;;43.92;15.65;;;;;;;7.15;73.31;95474.38;5004694;28;20028;-76
2023/01/23 07:20:44;;;;;;;32.65;13.88;;;;;;;7.25;73.21;95482.44;5018649;28;20052;-77
2023/01/23 07:23:10;;;;;;;8.35;5.07;;;;;;;6.83;74.70;95481.44;5023136;28;20027;-76
2023/01/23 07:25:35;;;;;;;9.32;5.38;;;;;;;6.85;74.79;95502.84;5024493;28;20053;-76
2023/01/23 07:28:01;;;;;;;12.00;6.00;;;;;;;6.79;74.73;95473.94;5026876;28;20910;-76
2023/01/23 07:30:26;;;;;;;14.55;7.22;;;;;;;6.90;75.04;95500.81;5043680;28;20068;-77
2023/01/23 07:32:52;;;;;;;14.95;7.82;;;;;;;6.87;74.44;95492.41;5041944;28;20029;-77
2023/01/23 07:35:17;;;;;;;13.07;7.15;;;;;;;7.02;74.32;95516.53;5043494;28;20036;-77
2023/01/23 07:37:43;;;;;;;10.38;5.25;;;;;;;6.76;74.35;95481.88;5008110;28;20509;-77
2023/01/23 07:40:09;;;;;;;8.68;5.63;;;;;;;7.02;74.08;95488.97;5041841;28;20041;-77
2023/01/23 07:42:35;;;;;;;9.18;5.45;;;;;;;7.12;74.30;95505.56;5040909;28;20027;-77
2023/01/23 07:45:00;;;;;;;9.95;5.40;;;;;;;6.85;73.84;95505.44;5010360;28;20048;-77
2023/01/23 07:47:26;;;;;;;8.45;5.18;;;;;;;6.92;73.97;95529.16;5040780;28;20033;-77
2023/01/23 07:49:51;;;;;;;7.50;4.65;;;;;;;6.83;74.04;95516.78;5046003;28;20036;-77
2023/01/23 07:52:16;;;;;;;8.57;5.63;;;;;;;6.67;73.91;95504.72;5046039;28;20071;-80
2023/01/23 07:54:42;;;;;;;8.82;5.20;;;;;;;6.76;74.41;95528.34;5049577;28;20040;-77
2023/01/23 07:57:07;;;;;;;6.60;3.97;;;;;;;6.59;74.39;95488.81;5036916;28;20044;-77
2023/01/23 07:59:33;;;;;;;8.95;4.90;;;;;;;6.77;73.66;95517.09;5013993;28;20029;-77
2023/01/23 08:01:59;;;;;;;6.28;4.15;;;;;;;6.47;74.99;95525.66;5049401;28;20094;-78
2023/01/23 08:04:24;;;;;;;6.28;4.22;;;;;;;6.53;75.09;95522.72;5049510;28;20475;-77
2023/01/23 08:06:50;;;;;;;7.38;4.30;;;;;;;6.58;74.04;95518.16;5049651;28;20403;-78
2023/01/23 08:09:15;;;;;;;6.10;4.22;;;;;;;6.63;73.37;95521.31;5048872;28;20025;-77
2023/01/23 08:11:41;;;;;;;7.45;4.57;;;;;;;6.66;73.07;95531.47;5031103;28;20024;-77
2023/01/23 08:14:06;;;;;;;7.18;3.97;;;;;;;6.71;72.63;95519.13;5047489;28;20040;-77
2023/01/23 08:16:32;;;;;;;6.72;4.18;;;;;;;6.76;72.88;95502.53;5014539;28;20025;-77
2023/01/23 08:18:57;;;;;;;6.60;4.28;;;;;;;6.92;72.60;95532.56;5047451;28;20029;-77
2023/01/23 08:21:23;;;;;;;6.45;4.18;;;;;;;6.91;71.94;95530.09;5048097;28;20025;-77
2023/01/23 08:23:48;;;;;;;8.40;4.78;;;;;;;7.06;71.77;95536.13;5048483;28;20060;-77
2023/01/23 08:26:15;;;;;;;6.50;4.00;;;;;;;7.12;71.40;95538.34;5046983;28;20283;-77
2023/01/23 08:28:41;;;;;;;7.00;4.13;;;;;;;7.22;70.93;95531.72;5044714;28;20029;-77
2023/01/23 08:31:08;;;;;;;6.05;3.70;;;;;;;7.29;70.54;95530.44;5019996;28;20021;-77
2023/01/23 08:33:34;;;;;;;5.63;3.70;;;;;;;6.97;70.23;95554.72;5008173;28;20024;-77
2023/01/23 08:35:59;;;;;;;6.55;4.32;;;;;;;7.11;70.67;95554.78;5022389;28;20026;-77
2023/01/23 08:38:25;;;;;;;5.65;3.63;;;;;;;6.77;70.48;95551.53;5033513;28;20078;-77
2023/01/23 08:40:51;;;;;;;6.18;3.85;;;;;;;6.90;70.47;95554.22;5012773;28;20029;-77
2023/01/23 08:43:17;;;;;;;7.50;4.32;;;;;;;6.87;70.63;95562.97;5032958;28;20516;-77
2023/01/23 08:45:48;;;;;;;5.03;3.55;;;;;;;6.44;71.75;95570.53;5049112;28;20049;-77
2023/01/23 08:48:14;;;;;;;6.05;3.65;;;;;;;6.38;72.10;95568.28;5024880;28;20161;-77
2023/01/23 08:50:39;;;;;;;12.75;6.25;;;;;;;6.63;71.42;95572.94;5021669;28;20515;-77
2023/01/23 08:53:05;;;;;;;9.30;4.85;;;;;;;6.82;71.52;95567.56;5012702;28;20407;-77
2023/01/23 08:55:31;;;;;;;4.72;3.30;;;;;;;6.75;70.62;95570.59;5032461;28;20222;-77
2023/01/23 08:57:58;;;;;;;21.25;7.85;;;;;;;6.91;71.46;95567.06;5049050;28;20052;-77
2023/01/23 09:00:24;;;;;;;7.53;3.90;;;;;;;6.83;70.74;95563.25;5030070;28;20061;-77
2023/01/23 09:02:50;;;;;;;6.13;3.60;;;;;;;7.08;70.26;95584.19;5012778;28;20034;-77
2023/01/23 09:05:16;;;;;;;4.97;3.10;;;;;;;6.65;70.49;95585.75;5032205;28;20033;-77
2023/01/23 09:07:41;;;;;;;4.45;2.65;;;;;;;6.55;70.58;95582.84;5048884;28;20124;-77
2023/01/23 09:10:08;;;;;;;5.55;3.30;;;;;;;6.76;71.68;95572.25;5020956;28;20486;-77
2023/01/23 09:12:33;;;;;;;7.43;3.92;;;;;;;6.92;70.90;95553.22;5016052;28;20085;-77
2023/01/23 09:14:59;;;;;;;5.07;2.90;;;;;;;7.09;70.31;95572.94;5033963;28;20038;-77
2023/01/23 09:17:24;;;;;;;5.78;2.97;;;;;;;6.96;70.20;95566.78;5032632;28;20040;-77
2023/01/23 09:19:50;;;;;;;5.55;3.30;;;;;;;7.04;70.33;95577.53;5032834;28;20041;-77
2023/01/23 09:22:16;;;;;;;4.53;3.03;;;;;;;7.24;69.72;95586.72;5032688;28;20033;-77
2023/01/23 09:24:41;;;;;;;4.18;2.83;;;;;;;7.26;69.84;95581.47;5015952;28;20138;-77
2023/01/23 09:27:07;;;;;;;5.10;2.85;;;;;;;7.21;70.85;95573.16;5016104;28;20030;-77
2023/01/23 09:29:32;;;;;;;4.95;3.00;;;;;;;7.29;69.92;95571.78;5032411;28;20049;-77
2023/01/23 09:31:58;;;;;;;4.85;3.15;;;;;;;7.14;71.71;95578.69;5004349;28;20029;-77
2023/01/23 09:34:23;;;;;;;4.78;3.28;;;;;;;7.32;71.83;95581.13;5025551;28;20034;-77
2023/01/23 09:36:49;;;;;;;6.40;3.75;;;;;;;7.29;71.06;95555.44;5030083;28;20021;-77
2023/01/23 09:39:14;;;;;;;6.63;4.00;;;;;;;7.34;70.30;95556.03;5035544;28;20029;-77
2023/01/23 09:41:40;;;;;;;5.85;3.83;;;;;;;7.47;69.86;95569.91;5047107;28;20026;-77
2023/01/23 09:44:17;;;;;;;6.03;2.95;;;;;;;7.15;70.29;95557.06;5018651;28;20037;-77
2023/01/23 09:46:49;;;;;;;5.60;3.22;;;;;;;7.16;70.99;95556.16;5024032;28;20487;-77
2023/01/23 09:49:29;;;;;;;5.07;3.03;;;;;;;7.37;71.04;95558.41;5016230;28;20041;-77
2023/01/23 09:52:04;;;;;;;4.40;2.95;;;;;;;7.25;70.49;95548.81;5032074;28;20026;-77
2023/01/23 09:54:46;;;;;;;7.05;4.30;;;;;;;6.92;72.02;95544.66;5015535;28;20033;-77
2023/01/23 09:57:17;;;;;;;7.53;4.80;;;;;;;7.08;72.60;95554.94;5031902;28;20029;-77
2023/01/23 09:59:51;;;;;;;5.80;3.20;;;;;;;7.18;71.46;95544.91;5032142;28;20484;-77
2023/01/23 10:02:18;;;;;;;5.80;4.57;;;;;;;7.12;71.26;95543.50;5031859;28;20044;-77
2023/01/23 10:04:49;;;;;;;5.05;3.58;;;;;;;7.14;72.03;95550.25;5031840;28;20491;-77
2023/01/23 10:07:16;;;;;;;6.18;3.85;;;;;;;7.22;71.44;95541.25;5015612;28;20029;-77
2023/01/23 10:09:48;;;;;;;5.38;3.72;;;;;;;7.26;71.01;95540.94;5031781;28;20030;-77
2023/01/23 10:12:42;;;;;;;6.00;3.63;;;;;;;7.29;71.66;95542.53;5032958;28;20051;-77
2023/01/23 10:15:32;;;;;;;6.75;4.10;;;;;;;7.29;72.13;95527.03;5031844;28;20112;-76
2023/01/23 10:18:16;;;;;;;16.23;9.60;;;;;;;7.36;71.54;95536.91;5045637;28;20033;-76
2023/01/23 10:21:02;;;;;;;38.75;24.10;;;;;;;7.33;71.39;95531.94;5051744;28;20033;-75
2023/01/23 10:23:40;;;;;;;21.70;13.70;;;;;;;7.36;72.41;95536.09;5045447;28;20399;-79
2023/01/23 10:26:10;;;;;;;13.13;7.97;;;;;;;7.41;71.74;95533.22;5046950;28;20037;-78
2023/01/23 10:28:38;;;;;;;10.50;6.97;;;;;;;7.34;71.75;95537.94;4999209;28;20040;-75
2023/01/23 10:31:32;;;;;;;12.90;7.88;;;;;;;7.22;72.11;95530.91;4998774;28;20068;-78
2023/01/23 10:34:04;;;;;;;9.02;6.18;;;;;;;7.16;72.03;95532.91;5021911;28;20051;-77
2023/01/23 10:36:34;;;;;;;13.95;8.20;;;;;;;7.08;72.05;95516.19;5032555;28;20087;-78
2023/01/23 10:39:07;;;;;;;18.00;7.73;;;;;;;7.15;72.44;95520.06;4999194;28;20423;-77
2023/01/23 10:41:33;;;;;;;26.35;14.85;;;;;;;7.28;71.68;95520.19;5017120;28;20484;-78
2023/01/23 10:43:58;;;;;;;99.03;47.70;;;;;;;7.25;71.84;95518.63;5038889;28;20037;-77
2023/01/23 10:46:37;;;;;;;30.60;17.05;;;;;;;7.29;72.52;95521.84;5013433;28;20389;-77
2023/01/23 10:49:03;;;;;;;25.73;13.70;;;;;;;7.16;72.50;95514.81;5014877;28;20044;-77
2023/01/23 10:51:45;;;;;;;30.23;18.42;;;;;;;7.16;72.15;95508.84;5013346;28;20025;-77
2023/01/23 10:54:18;;;;;;;16.45;9.50;;;;;;;7.20;72.22;95518.06;5037773;28;20478;-77
2023/01/23 10:56:57;;;;;;;11.25;6.82;;;;;;;7.38;71.98;95523.88;5016614;28;20025;-77
2023/01/23 10:59:31;;;;;;;17.70;12.43;;;;;;;7.20;72.26;95506.88;5048851;28;20068;-77
2023/01/23 11:02:11;;;;;;;15.52;10.95;;;;;;;7.36;72.33;95520.59;5046108;28;20025;-77
2023/01/23 11:04:37;;;;;;;14.00;9.97;;;;;;;7.25;72.82;95507.47;5030188;28;20053;-77
2023/01/23 11:07:13;;;;;;;13.68;8.73;;;;;;;7.25;72.58;95528.13;5013766;28;20033;-77
2023/01/23 11:09:51;;;;;;;9.98;7.15;;;;;;;7.07;72.95;95530.84;5030799;28;20502;-77
2023/01/23 11:12:27;;;;;;;13.18;8.52;;;;;;;6.97;74.21;95541.81;5030639;28;20040;-77
2023/01/23 11:15:19;;;;;;;10.38;6.90;;;;;;;7.10;73.72;95535.84;4999041;28;20041;-78
2023/01/23 11:17:45;;;;;;;10.48;6.53;;;;;;;7.04;73.10;95520.69;5030570;28;20032;-78
2023/01/23 11:20:35;;;;;;;13.85;8.98;;;;;;;7.34;73.08;95531.00;5014138;28;20029;-78
2023/01/23 11:23:16;;;;;;;13.80;9.38;;;;;;;7.13;73.57;95509.84;5030569;28;20100;-78
2023/01/23 11:25:45;;;;;;;;;;;;;;;7.31;72.88;95528.59;5014421;28;20103;-78
2023/01/23 11:28:23;;;;;;;10.68;6.47;;;;;;;7.16;72.99;95529.50;5013874;28;19913;-78
2023/01/23 11:30:50;;;;;;;10.23;6.35;;;;;;;7.18;72.77;95516.47;5030415;28;20044;-78
2023/01/23 11:33:24;;;;;;;13.52;9.18;;;;;;;7.14;72.84;95513.25;5013370;28;20117;-78
2023/01/23 11:35:57;;;;;;;13.48;8.27;;;;;;;6.96;73.62;95519.47;5030349;28;20049;-78
2023/01/23 11:38:28;;;;;;;13.82;8.93;;;;;;;7.00;73.90;95518.38;5029882;28;20037;-78
2023/01/23 11:40:53;;;;;;;12.63;8.20;;;;;;;7.00;74.09;95508.06;5013718;28;20037;-78
2023/01/23 11:43:19;;;;;;;11.13;7.72;;;;;;;7.08;74.05;95506.69;5013629;28;20036;-78
2023/01/23 11:46:19;;;;;;;16.55;10.23;;;;;;;7.19;74.38;95533.63;4997206;28;20037;-78
2023/01/23 11:49:06;;;;;;;14.93;9.43;;;;;;;7.22;74.11;95533.47;5030120;28;20044;-78
2023/01/23 11:51:44;;;;;;;16.05;10.73;;;;;;;7.23;74.86;95537.72;5029970;28;20025;-78
2023/01/23 11:54:28;;;;;;;15.43;10.57;;;;;;;7.22;74.45;95543.81;5031236;28;20037;-79